createdAt,value
2022-10-05T05:54:02.339Z,13.25
2022-10-05T05:57:35.863Z,12.43
2022-10-05T06:01:48.230Z,12.05
2022-10-05T06:13:57.553Z,14.50
2022-10-05T06:25:39.208Z,12.30
2022-10-05T06:28:21.210Z,13.57
2022-10-05T06:31:48.943Z,12.77
2022-10-05T06:35:06.704Z,14.73
2022-10-05T06:38:59.918Z,12.52
2022-10-05T06:42:16.629Z,15.48
2022-10-05T06:46:16.978Z,16.23
2022-10-05T06:49:46.865Z,11.85
2022-10-05T06:53:54.547Z,8.40
2022-10-05T06:57:07.021Z,9.32
2022-10-05T07:00:17.489Z,8.90
2022-10-05T07:03:58.455Z,8.30
2022-10-05T07:06:49.732Z,7.18
2022-10-05T07:09:43.478Z,11.85
2022-10-05T07:13:13.575Z,6.22
2022-10-05T07:16:21.978Z,6.55
2022-10-05T07:19:37.443Z,32.30
2022-10-05T07:22:57.362Z,9.95
2022-10-05T07:25:44.916Z,16.55
2022-10-05T07:29:13.334Z,13.02
2022-10-05T07:32:03.351Z,10.38
2022-10-05T07:35:41.197Z,26.35
2022-10-05T07:38:48.714Z,14.10
2022-10-05T07:41:52.587Z,12.77
2022-10-05T07:44:51.518Z,14.20
2022-10-05T07:47:50.092Z,10.07
2022-10-05T07:51:08.213Z,12.13
2022-10-05T07:53:51.046Z,11.95
2022-10-05T07:56:45.212Z,10.93
2022-10-05T07:59:48.332Z,12.52
2022-10-05T08:03:12.673Z,11.75
2022-10-05T08:06:14.829Z,13.98
2022-10-05T08:08:57.767Z,11.10
2022-10-05T08:11:40.706Z,10.18
2022-10-05T08:14:33.855Z,10.18
2022-10-05T08:17:15.730Z,11.55
2022-10-05T08:20:29.162Z,10.27
2022-10-05T08:23:29.672Z,10.23
2022-10-05T08:26:14.376Z,11.15
2022-10-05T08:29:28.686Z,9.85
2022-10-05T08:32:13.521Z,9.63
2022-10-05T08:35:04.293Z,10.57
2022-10-05T08:37:46.053Z,10.77
2022-10-05T08:40:46.364Z,10.50
2022-10-05T08:44:02.367Z,10.52
2022-10-05T08:47:20.229Z,11.77
2022-10-05T08:50:08.743Z,11.00
2022-10-05T08:53:22.190Z,10.48
2022-10-05T08:56:43.070Z,9.50
2022-10-05T08:59:50.920Z,10.75
2022-10-05T09:02:54.388Z,11.33
2022-10-05T09:06:38.244Z,10.65
2022-10-05T09:09:50.819Z,11.43
2022-10-05T09:13:06.883Z,10.18
2022-10-05T09:15:56.689Z,9.73
2022-10-05T09:18:47.265Z,10.23
2022-10-05T09:21:46.231Z,11.23
2022-10-05T09:25:00.109Z,11.63
2022-10-05T09:28:04.067Z,11.02
2022-10-05T09:31:17.457Z,10.90
2022-10-05T09:34:41.620Z,10.32
2022-10-05T09:37:38.165Z,9.70
2022-10-05T09:41:04.571Z,10.48
2022-10-05T09:45:06.291Z,9.95
2022-10-05T09:48:32.384Z,10.48
2022-10-05T09:51:27.178Z,9.32
2022-10-05T09:54:53.081Z,9.40
2022-10-05T09:58:12.580Z,10.05
2022-10-05T10:01:34.717Z,11.20
2022-10-05T10:04:50.757Z,10.75
2022-10-05T10:10:51.446Z,10.57
2022-10-05T10:13:54.922Z,11.02
2022-10-05T10:17:29.603Z,10.30
2022-10-05T10:20:28.620Z,10.35
2022-10-05T10:23:50.960Z,8.93
2022-10-05T10:26:38.473Z,8.98
2022-10-05T10:29:31.478Z,10.02
2022-10-05T10:32:24.782Z,10.23
2022-10-05T10:35:44.062Z,10.73
2022-10-05T10:38:39.444Z,10.30
2022-10-05T10:41:56.799Z,10.10
2022-10-05T10:44:59.767Z,11.05
2022-10-05T10:48:06.516Z,11.55
2022-10-05T10:51:09.005Z,9.93
2022-10-05T10:54:14.390Z,8.70
2022-10-05T10:56:57.556Z,8.95
2022-10-05T11:00:19.851Z,9.30
2022-10-05T11:03:43.040Z,9.63
2022-10-05T11:07:28.109Z,9.45
2022-10-05T11:10:51.459Z,9.60
2022-10-05T11:14:50.302Z,10.07
2022-10-05T11:18:00.044Z,9.85
2022-10-05T11:24:59.221Z,8.77
2022-10-05T11:31:45.317Z,7.53
2022-10-05T11:34:48.362Z,8.15
2022-10-05T11:38:04.008Z,7.90
2022-10-05T11:41:10.942Z,9.35
2022-10-05T11:44:33.674Z,9.10
2022-10-05T11:47:33.560Z,10.07
2022-10-05T11:50:59.618Z,10.30
2022-10-05T11:54:15.353Z,8.75
2022-10-05T11:57:28.656Z,9.45
2022-10-05T12:00:25.697Z,9.05
2022-10-05T12:03:18.170Z,8.55
2022-10-05T12:10:29.606Z,6.88
2022-10-05T12:13:54.961Z,7.15
2022-10-05T12:17:16.647Z,6.68
2022-10-05T12:20:01.372Z,8.73
2022-10-05T12:23:19.934Z,8.30
2022-10-05T12:26:44.920Z,6.90
2022-10-05T12:29:57.967Z,7.85
2022-10-05T12:33:25.079Z,7.22
2022-10-05T12:36:59.223Z,7.30
2022-10-05T12:40:03.307Z,7.43
2022-10-05T12:43:21.020Z,7.00
2022-10-05T12:46:35.655Z,7.82
2022-10-05T12:50:08.704Z,7.07
2022-10-05T12:53:20.091Z,7.45
2022-10-05T12:56:31.393Z,7.18
2022-10-05T12:59:45.606Z,7.18
2022-10-05T13:02:51.211Z,7.20
2022-10-05T13:06:04.590Z,6.57
2022-10-05T13:08:59.413Z,6.53
2022-10-05T13:11:50.791Z,6.65
2022-10-05T13:15:31.169Z,6.40
2022-10-05T13:18:43.849Z,6.00
2022-10-05T13:22:32.070Z,6.47
2022-10-05T13:25:33.960Z,6.22
2022-10-05T13:28:58.563Z,6.53
2022-10-05T13:31:49.111Z,6.15
2022-10-05T13:35:22.338Z,6.30
2022-10-05T13:38:27.504Z,5.53
2022-10-05T13:42:18.499Z,5.72
2022-10-05T13:49:42.167Z,5.82
2022-10-05T13:52:45.514Z,5.55
2022-10-05T13:56:26.988Z,5.63
2022-10-05T13:59:38.140Z,5.40
2022-10-05T14:02:23.253Z,5.72
2022-10-05T14:05:25.918Z,5.43
2022-10-05T14:08:39.505Z,4.78
2022-10-05T14:12:13.568Z,5.18
2022-10-05T14:15:42.420Z,5.55
2022-10-05T14:18:34.731Z,5.30
2022-10-05T14:21:26.039Z,5.90
2022-10-05T14:28:33.028Z,5.88
2022-10-05T14:32:02.110Z,6.07
2022-10-05T14:35:25.487Z,5.57
2022-10-05T14:39:23.780Z,5.55
2022-10-05T14:42:31.884Z,4.68
2022-10-05T14:45:37.476Z,3.95
2022-10-05T14:48:17.832Z,5.03
2022-10-05T14:51:57.915Z,4.07
2022-10-05T14:55:16.218Z,4.78
2022-10-05T15:03:10.304Z,5.35
2022-10-05T15:06:27.249Z,4.15
2022-10-05T15:10:17.474Z,4.60
2022-10-05T15:13:48.778Z,4.57
2022-10-05T15:16:40.701Z,4.60
2022-10-05T15:31:34.603Z,4.72
2022-10-05T15:34:57.281Z,5.10
2022-10-05T15:38:41.352Z,5.25
2022-10-05T15:46:19.179Z,4.85
2022-10-05T15:56:44.658Z,5.75
2022-10-05T16:00:10.876Z,5.63
2022-10-05T16:04:10.799Z,6.88
2022-10-05T16:11:10.560Z,28.30
2022-10-05T16:14:29.100Z,9.65
2022-10-05T16:17:41.330Z,17.52
2022-10-05T19:31:30.426Z,18.40
2022-10-05T19:34:43.091Z,17.15
2022-10-05T19:37:19.517Z,19.60
2022-10-05T19:40:07.254Z,20.90
2022-10-05T19:42:45.345Z,20.23
2022-10-05T19:49:57.075Z,21.05
2022-10-05T19:52:28.695Z,22.90
2022-10-05T19:55:17.186Z,20.00
2022-10-05T19:58:21.203Z,15.20
2022-10-05T20:01:06.364Z,12.13
2022-10-05T20:03:38.195Z,12.52
2022-10-05T20:06:10.995Z,12.82
2022-10-05T20:08:45.034Z,12.63
2022-10-05T20:11:19.697Z,12.73
2022-10-05T20:14:01.186Z,12.98
2022-10-05T20:16:53.263Z,11.38
2022-10-05T20:19:52.139Z,13.25
2022-10-05T20:22:28.515Z,18.23
2022-10-05T20:24:58.934Z,12.95
2022-10-05T20:27:42.547Z,15.38
2022-10-05T20:30:33.926Z,13.63
2022-10-05T20:33:01.769Z,13.70
2022-10-05T20:35:30.881Z,14.95
2022-10-05T20:38:00.187Z,15.30
2022-10-05T20:40:29.902Z,14.02
2022-10-05T20:42:59.136Z,13.82
2022-10-05T20:45:27.350Z,13.20
2022-10-05T20:47:55.171Z,12.25
2022-10-05T20:50:23.642Z,14.45
2022-10-05T20:52:51.392Z,20.45
2022-10-05T20:55:20.881Z,13.02
2022-10-05T20:57:50.975Z,11.73
2022-10-05T21:00:20.374Z,11.88
2022-10-05T21:02:50.635Z,12.68
2022-10-05T21:05:18.474Z,12.38
2022-10-05T21:12:19.770Z,13.25
2022-10-05T21:14:47.566Z,14.85
2022-10-05T21:17:15.496Z,14.77
2022-10-05T21:19:43.297Z,15.93
2022-10-05T21:22:10.942Z,16.05
2022-10-05T21:24:41.077Z,16.58
2022-10-05T21:27:11.540Z,18.73
2022-10-05T21:29:41.561Z,17.50
2022-10-05T21:32:11.888Z,20.35
2022-10-05T21:34:41.654Z,17.65
2022-10-05T21:37:14.195Z,16.15
2022-10-05T21:39:42.400Z,15.75
2022-10-05T21:42:09.768Z,15.63
2022-10-05T21:44:37.341Z,13.82
2022-10-05T21:47:07.052Z,13.98
2022-10-05T21:49:36.268Z,15.77
2022-10-05T21:52:05.897Z,14.25
2022-10-05T21:54:35.177Z,13.00
2022-10-05T21:57:05.604Z,13.98
2022-10-05T21:59:34.870Z,12.73
2022-10-05T22:02:05.229Z,13.93
2022-10-05T22:04:32.583Z,14.43
2022-10-05T22:07:01.321Z,13.73
2022-10-05T22:09:28.691Z,13.57
2022-10-05T22:11:57.609Z,14.13
2022-10-05T22:14:25.487Z,13.65
2022-10-05T22:16:53.512Z,13.90
2022-10-05T22:19:22.332Z,12.95
2022-10-05T22:21:51.367Z,14.18
2022-10-05T22:24:20.477Z,13.73
2022-10-05T22:26:51.709Z,25.13
2022-10-05T22:29:20.518Z,13.77
2022-10-05T22:31:49.282Z,13.73
2022-10-05T22:34:18.475Z,12.30
2022-10-05T22:36:48.542Z,13.35
2022-10-05T22:39:17.220Z,13.95
2022-10-05T22:41:46.594Z,12.73
2022-10-05T22:44:14.631Z,13.20
2022-10-05T22:46:43.507Z,13.25
2022-10-05T22:49:11.829Z,13.15
2022-10-05T22:51:39.577Z,13.90
2022-10-05T22:54:07.078Z,13.20
2022-10-05T22:56:34.732Z,13.68
2022-10-05T22:59:03.542Z,12.63
2022-10-05T23:01:31.007Z,12.35
2022-10-05T23:04:00.331Z,11.43
2022-10-05T23:06:28.816Z,12.90
2022-10-05T23:08:57.439Z,14.10
2022-10-05T23:11:28.928Z,13.60
2022-10-05T23:13:58.126Z,15.13
2022-10-05T23:16:27.913Z,15.10
2022-10-05T23:18:56.991Z,15.10
2022-10-05T23:21:27.730Z,15.40
2022-10-05T23:23:55.215Z,14.55
2022-10-05T23:26:26.633Z,13.77
2022-10-05T23:28:54.806Z,15.20
2022-10-05T23:31:27.555Z,14.93
2022-10-05T23:33:56.628Z,15.23
2022-10-05T23:36:27.865Z,15.57
2022-10-05T23:38:55.469Z,14.10
2022-10-05T23:41:23.751Z,15.27
2022-10-05T23:43:52.216Z,14.77
2022-10-05T23:46:19.962Z,14.13
2022-10-05T23:48:50.461Z,14.23
2022-10-05T23:51:19.404Z,14.20
2022-10-05T23:53:46.985Z,13.93
2022-10-05T23:56:14.424Z,13.75
2022-10-05T23:58:45.830Z,13.98
